Terminal Aerodrome Forecast
Issued by NWS

Home | Current Version | Previous Version | Text Only | Print | Product List | Glossary On
Versions: 1 2 3 4 5 6 7 8 9 10 11 12 13
000
FTUS45 KABQ 300526
TAFAEG
TAF
KAEG 300526Z 3006/3106 35007KT P6SM SCT250
     FM300800 VRB04KT P6SM SCT250
     FM301700 18010KT P6SM FEW080
     FM302200 18014G20KT P6SM VCTS SCT080CB
     FM310100 22010KT P6SM VCSH BKN080
     FM310400 33009KT P6SM BKN080=

USA.gov is the U.S. government's official web portal to all federal, state and local government web resources and services.